Historique des stations

Station météo de Etrechet

Altitude de la station : 156 m







Données météorologiques pour le 18/08/2022
Date
Heure
Températures Humidité Point de rosée Vitesse
du vent
Direction Rafales Windchill Pression Pluviométrie
Cumul
Date
Heure
Températures Humidité Point de rosée Vitesse
du vent
Direction Rafales Windchill Pression Pluviométrie
Cumul
18/08/2022 23:5919.6 °C68 %13.3 °C6 km/hOSO31 km/h19.4 1015 hPa-
18/08/2022 23:4519.8 °C66 %13.3 °C5 km/hO11 km/h20.0 1015 hPa-
18/08/2022 23:4419.8 °C66 %13.3 °C6 km/hO31 km/h20.0 1015 hPa-
18/08/2022 23:3020.2 °C65 %13.3 °C2 km/hO31 km/h20.0 1015 hPa-
18/08/2022 23:1520.3 °C65 %13.3 °C2 km/hOSO10 km/h20.6 1015 hPa-
18/08/2022 23:1420.3 °C64 %13.3 °C6 km/hO31 km/h20.6 1015 hPa-
18/08/2022 23:0020.7 °C63 %13.3 °C5 km/hOSO31 km/h20.6 1015 hPa-
18/08/2022 22:4521.0 °C62 %13.3 °C-OSO31 km/h21.1 1015 hPa-
18/08/2022 22:3021.2 °C61 %13.3 °C3 km/hOSO31 km/h21.1 1015 hPa-
18/08/2022 22:1521.4 °C61 %13.3 °C8 km/hOSO31 km/h21.7 1015 hPa-
18/08/2022 22:0021.5 °C61 %13.3 °C5 km/hOSO31 km/h21.7 1015 hPa-
18/08/2022 21:4521.8 °C60 %13.9 °C5 km/hOSO31 km/h21.7 1015 hPa-
18/08/2022 21:3022.2 °C59 %13.9 °C5 km/hOSO31 km/h22.2 1015 hPa-
18/08/2022 21:1523.1 °C56 %13.9 °C5 km/hOSO31 km/h23.3 1015 hPa-
18/08/2022 21:0023.7 °C53 %13.3 °C10 km/hO31 km/h23.9 1014 hPa-
18/08/2022 20:4524.3 °C52 %13.9 °C6 km/hO31 km/h24.4 1014 hPa-
18/08/2022 20:2924.8 °C51 %13.9 °C5 km/hO31 km/h25.0 1014 hPa-
18/08/2022 20:1425.2 °C49 %13.9 °C5 km/hO31 km/h25.0 1014 hPa-
18/08/2022 19:5925.5 °C48 %13.9 °C16 km/hO31 km/h24.4 1014 hPa-
18/08/2022 19:4325.8 °C47 %13.3 °C16 km/hONO31 km/h24.4 1014 hPa-
18/08/2022 19:2926.1 °C46 %13.3 °C23 km/hONO31 km/h24.4 1014 hPa-
18/08/2022 19:1426.2 °C46 %13.9 °C19 km/hO31 km/h25.0 1014 hPa-
18/08/2022 18:5926.4 °C45 %13.3 °C14 km/hO31 km/h25.6 1014 hPa-
18/08/2022 18:4526.5 °C46 %13.9 °C8 km/hONO27 km/h26.7 1014 hPa-
18/08/2022 18:4426.6 °C46 %13.9 °C13 km/hO31 km/h26.1 1014 hPa-
18/08/2022 18:3026.6 °C47 %14.4 °C18 km/hO26 km/h25.6 1014 hPa-
18/08/2022 18:2926.6 °C47 %14.4 °C18 km/hONO31 km/h25.6 1014 hPa-
18/08/2022 18:1426.7 °C49 %15.0 °C19 km/hO31 km/h25.6 1014 hPa-
18/08/2022 18:0026.3 °C51 %15.6 °C19 km/hO29 km/h25.0 1014 hPa-
18/08/2022 17:5926.2 °C51 %15.0 °C13 km/hOSO31 km/h25.6 1014 hPa-
18/08/2022 17:4526.0 °C51 %15.0 °C21 km/hONO31 km/h24.4 1014 hPa-
18/08/2022 17:4426.1 °C51 %15.0 °C16 km/hONO26 km/h25.0 1014 hPa-
18/08/2022 17:3026.3 °C51 %15.6 °C16 km/hONO24 km/h25.0 1014 hPa-
18/08/2022 17:2926.4 °C50 %15.0 °C13 km/hO26 km/h26.1 1014 hPa-
18/08/2022 17:1427.1 °C50 %15.6 °C13 km/hO26 km/h27.2 1014 hPa-
18/08/2022 16:5927.0 °C49 %15.6 °C18 km/hO26 km/h26.1 1014 hPa-
18/08/2022 16:4527.0 °C49 %15.6 °C16 km/hOSO26 km/h26.1 1014 hPa-
18/08/2022 16:4427.1 °C50 %15.6 °C14 km/hOSO26 km/h27.2 1014 hPa-
18/08/2022 16:3026.9 °C49 %15.0 °C14 km/hSO24 km/h25.6 1014 hPa-
18/08/2022 16:2926.9 °C48 %15.0 °C8 km/hOSO26 km/h27.2 1014 hPa-
18/08/2022 16:1527.6 °C47 %15.0 °C16 km/hO26 km/h26.7 1014 hPa-
18/08/2022 16:1427.4 °C48 %15.6 °C14 km/hO26 km/h27.2 1014 hPa-
18/08/2022 16:0026.8 °C48 %15.0 °C11 km/hO24 km/h26.1 1014 hPa-
18/08/2022 15:5926.8 °C49 %15.0 °C18 km/hOSO26 km/h25.6 1014 hPa-
18/08/2022 15:4427.2 °C50 %15.6 °C21 km/hO26 km/h26.1 1014 hPa-
18/08/2022 15:3025.9 °C51 %15.0 °C10 km/hSO23 km/h26.1 1014 hPa-
18/08/2022 15:2926.1 °C50 %15.0 °C5 km/hOSO24 km/h26.1 1014 hPa-
18/08/2022 15:1526.0 °C50 %15.0 °C5 km/hNO14 km/h26.1 1014 hPa-
18/08/2022 15:1425.9 °C51 %15.0 °C2 km/hNE24 km/h26.1 1014 hPa-
18/08/2022 15:0026.5 °C51 %15.6 °C14 km/hNO21 km/h25.6 1014 hPa-
18/08/2022 14:5926.3 °C52 %15.6 °C13 km/hNO24 km/h25.6 1014 hPa-
18/08/2022 14:4526.1 °C50 %15.0 °C6 km/hONO23 km/h26.1 1014 hPa-
18/08/2022 14:4426.1 °C51 %15.0 °C13 km/hO24 km/h25.6 1014 hPa-
18/08/2022 14:3026.1 °C52 %15.6 °C5 km/hO19 km/h26.1 1014 hPa-
18/08/2022 14:2926.2 °C52 %15.6 °C8 km/hOSO24 km/h26.1 1014 hPa-
18/08/2022 14:1525.6 °C55 %16.1 °C8 km/hONO18 km/h25.6 1014 hPa-
18/08/2022 14:1425.4 °C54 %15.6 °C8 km/hOSO24 km/h25.6 1014 hPa-
18/08/2022 14:0025.3 °C55 %15.6 °C6 km/hSSO24 km/h25.6 1014 hPa-
18/08/2022 13:5925.4 °C56 %16.1 °C6 km/hSSO24 km/h25.6 1014 hPa-
18/08/2022 13:4524.7 °C57 %15.6 °C6 km/hNO19 km/h25.0 1014 hPa-
18/08/2022 13:4424.7 °C56 %15.0 °C10 km/hO21 km/h24.4 1014 hPa-
18/08/2022 13:3024.7 °C56 %15.6 °C11 km/hO13 km/h24.4 1014 hPa-
18/08/2022 13:2924.6 °C57 %15.6 °C10 km/hO21 km/h24.4 1014 hPa-
18/08/2022 13:1525.1 °C57 %16.1 °C10 km/hO16 km/h25.0 1014 hPa-
18/08/2022 13:1425.1 °C60 %16.7 °C11 km/hO21 km/h24.4 1014 hPa-
18/08/2022 13:0024.5 °C61 %16.7 °C2 km/hOSO16 km/h24.4 1014 hPa-
18/08/2022 12:5924.4 °C60 %16.1 °C6 km/hO21 km/h24.4 1014 hPa-
18/08/2022 12:4524.0 °C63 %16.7 °C5 km/hO19 km/h23.9 1014 hPa-
18/08/2022 12:4423.8 °C61 %15.6 °C8 km/hNO21 km/h23.9 1014 hPa-
18/08/2022 12:3024.1 °C63 %16.7 °C3 km/hOSO19 km/h23.9 1014 hPa-
18/08/2022 12:2924.1 °C62 %16.1 °C5 km/hOSO21 km/h23.9 1014 hPa-
18/08/2022 12:1523.7 °C64 %16.7 °C19 km/hONO19 km/h22.8 1014 hPa-
18/08/2022 12:1423.6 °C64 %16.1 °C14 km/hONO21 km/h22.8 1014 hPa-
18/08/2022 12:0022.8 °C69 %16.7 °C14 km/hO16 km/h21.7 1014 hPa-
18/08/2022 11:5922.8 °C69 %16.7 °C8 km/hOSO21 km/h22.8 1014 hPa-
18/08/2022 11:4622.7 °C67 %16.1 °C6 km/hNO19 km/h22.8 1014 hPa-
18/08/2022 11:4522.8 °C68 %16.7 °C14 km/hONO21 km/h21.7 1014 hPa-
18/08/2022 11:3122.1 °C73 %17.2 °C16 km/hONO19 km/h21.1 1014 hPa-
18/08/2022 11:3021.9 °C72 %16.7 °C6 km/hO14 km/h22.2 1014 hPa-
18/08/2022 11:1521.0 °C78 %17.2 °C5 km/hONO14 km/h21.1 1014 hPa-
18/08/2022 11:0020.0 °C80 %16.7 °C2 km/hOSO14 km/h20.0 1014 hPa-
18/08/2022 10:4619.3 °C83 %16.7 °C6 km/hSSO11 km/h19.4 1014 hPa-
18/08/2022 10:4519.3 °C83 %16.1 °C8 km/hOSO14 km/h19.4 1014 hPa-
18/08/2022 10:3118.8 °C84 %16.1 °C5 km/hSO14 km/h18.9 1015 hPa-
18/08/2022 10:3018.8 °C84 %16.1 °C8 km/hSO13 km/h18.9 1014 hPa-
18/08/2022 10:1618.8 °C83 %16.1 °C3 km/hOSO11 km/h18.9 1014 hPa-
18/08/2022 10:1518.9 °C83 %16.1 °C5 km/hSO13 km/h18.9 1014 hPa-
18/08/2022 10:0118.9 °C85 %16.7 °C8 km/hOSO13 km/h18.9 1014 hPa-
18/08/2022 09:5918.7 °C86 %16.1 °C10 km/hO13 km/h18.9 1014 hPa-
18/08/2022 09:4417.2 °C90 %15.6 °C3 km/hSSO13 km/h17.2 1014 hPa-
18/08/2022 09:3015.5 °C93 %14.4 °C-OSO11 km/h15.6 1014 hPa-
18/08/2022 09:2915.4 °C93 %14.4 °C3 km/hOSO11 km/h15.6 1014 hPa-
18/08/2022 09:1515.3 °C93 %14.4 °C6 km/hSO10 km/h15.6 1014 hPa-
18/08/2022 09:1415.3 °C93 %14.4 °C6 km/hSO11 km/h15.6 1014 hPa-
18/08/2022 09:0015.3 °C94 %14.4 °C3 km/hSSO8 km/h15.6 1014 hPa-
18/08/2022 08:5915.3 °C94 %14.4 °C3 km/hSSO11 km/h15.6 1014 hPa-
18/08/2022 08:4415.2 °C94 %14.4 °C8 km/hSSO10 km/h15.0 1014 hPa-
18/08/2022 08:3015.1 °C94 %14.4 °C6 km/hS8 km/h15.0 1014 hPa-
18/08/2022 08:2915.1 °C94 %14.4 °C2 km/hS10 km/h15.0 1014 hPa-
18/08/2022 08:1515.0 °C94 %13.9 °C3 km/hS5 km/h15.0 1014 hPa-
18/08/2022 08:1415.0 °C94 %13.9 °C-S10 km/h15.0 1014 hPa-
18/08/2022 08:0014.9 °C94 %13.9 °C3 km/hSO8 km/h15.0 1013 hPa-
18/08/2022 07:5914.9 °C94 %13.9 °C5 km/hSO10 km/h15.0 1013 hPa-
18/08/2022 07:4514.8 °C94 %13.9 °C5 km/hSSO8 km/h15.0 1013 hPa-
18/08/2022 07:4414.8 °C94 %13.9 °C3 km/hSSO10 km/h15.0 1013 hPa-
18/08/2022 07:3014.9 °C93 %13.9 °C5 km/hSSO5 km/h15.0 1013 hPa-
18/08/2022 07:2914.9 °C93 %13.9 °C5 km/hSSO10 km/h15.0 1013 hPa-
18/08/2022 07:1514.8 °C93 %13.9 °C2 km/hSSO6 km/h15.0 1013 hPa-
18/08/2022 07:1414.8 °C93 %13.9 °C2 km/hSSO10 km/h15.0 1013 hPa-
18/08/2022 07:0014.8 °C93 %13.9 °C6 km/hSO8 km/h15.0 1013 hPa-
18/08/2022 06:5914.8 °C93 %13.9 °C2 km/hOSO10 km/h15.0 1013 hPa-
18/08/2022 06:4514.8 °C93 %13.9 °C2 km/hSSO5 km/h15.0 1013 hPa-
18/08/2022 06:4414.8 °C93 %13.9 °C2 km/hSSO10 km/h15.0 1013 hPa-
18/08/2022 06:3014.8 °C93 %13.9 °C3 km/hSSO8 km/h15.0 1013 hPa-
18/08/2022 06:2914.8 °C93 %13.9 °C6 km/hSSO10 km/h15.0 1013 hPa-
18/08/2022 06:1514.8 °C93 %13.9 °C6 km/hSSO8 km/h15.0 1013 hPa-
18/08/2022 06:1414.7 °C93 %13.9 °C5 km/hSO10 km/h15.0 1013 hPa-
18/08/2022 06:0014.7 °C93 %13.9 °C5 km/hSSO6 km/h15.0 1013 hPa-
18/08/2022 05:5914.7 °C93 %13.9 °C3 km/hSO10 km/h15.0 1012 hPa-
18/08/2022 05:4514.8 °C92 %13.3 °C---15.0 1012 hPa-
18/08/2022 05:4414.7 °C92 %13.3 °C-SO10 km/h15.0 1012 hPa-
18/08/2022 05:3014.9 °C91 %13.3 °C-SO2 km/h15.0 1013 hPa-
18/08/2022 05:2914.9 °C91 %13.3 °C-SO10 km/h15.0 1013 hPa-
18/08/2022 05:1515.2 °C91 %13.9 °C2 km/hSO6 km/h15.0 1013 hPa-
18/08/2022 05:1415.2 °C91 %13.9 °C2 km/hSO10 km/h15.0 1013 hPa-
18/08/2022 05:0015.4 °C90 %13.9 °C3 km/hSO3 km/h15.6 1013 hPa-
18/08/2022 04:5915.4 °C90 %13.9 °C3 km/hSO10 km/h15.6 1013 hPa-
18/08/2022 04:4515.7 °C90 %13.9 °C2 km/hSO3 km/h15.6 1013 hPa-
18/08/2022 04:4415.6 °C90 %13.9 °C-SO10 km/h15.6 1013 hPa-
18/08/2022 04:3015.8 °C89 %13.9 °C5 km/hSO5 km/h15.6 1013 hPa-
18/08/2022 04:2915.8 °C90 %14.4 °C3 km/hSO10 km/h15.6 1013 hPa-
18/08/2022 04:1515.7 °C89 %13.9 °C3 km/hOSO5 km/h15.6 1013 hPa-
18/08/2022 04:1415.7 °C89 %13.9 °C2 km/hOSO10 km/h15.6 1013 hPa-
18/08/2022 04:0015.8 °C89 %13.9 °C-O10 km/h15.6 1013 hPa-
18/08/2022 03:5915.8 °C89 %13.9 °C2 km/hO10 km/h15.6 1013 hPa-
18/08/2022 03:4515.8 °C89 %13.9 °C-OSO6 km/h15.6 1013 hPa-
18/08/2022 03:4415.8 °C89 %13.9 °C5 km/hO10 km/h16.1 1013 hPa-
18/08/2022 03:3015.8 °C90 %14.4 °C3 km/hOSO6 km/h15.6 1013 hPa-
18/08/2022 03:2915.7 °C90 %13.9 °C5 km/hOSO10 km/h15.6 1013 hPa-
18/08/2022 03:1515.8 °C90 %14.4 °C3 km/hOSO3 km/h16.1 1013 hPa-
18/08/2022 03:1415.8 °C90 %14.4 °C3 km/hOSO10 km/h16.1 1013 hPa-
18/08/2022 03:0015.9 °C91 %14.4 °C2 km/hOSO3 km/h16.1 1013 hPa-
18/08/2022 02:5915.9 °C91 %14.4 °C-OSO10 km/h16.1 1013 hPa-
18/08/2022 02:4515.9 °C91 %14.4 °C2 km/hOSO5 km/h16.1 1013 hPa-
18/08/2022 02:4415.9 °C91 %14.4 °C-OSO10 km/h16.1 1013 hPa-
18/08/2022 02:3016.0 °C92 %15.0 °C-OSO6 km/h16.1 1013 hPa-
18/08/2022 02:2916.0 °C91 %14.4 °C-OSO10 km/h16.1 1013 hPa-
18/08/2022 02:1516.1 °C92 %15.0 °C3 km/hSSO6 km/h16.1 1013 hPa-
18/08/2022 02:1416.1 °C92 %15.0 °C3 km/hSSO10 km/h16.1 1013 hPa-
18/08/2022 02:0016.4 °C91 %15.0 °C5 km/hSO10 km/h16.7 1013 hPa-
18/08/2022 01:4516.6 °C91 %15.0 °C5 km/hSSO10 km/h16.7 1012 hPa-
18/08/2022 01:3016.8 °C91 %15.6 °C5 km/hS10 km/h16.7 1012 hPa-
18/08/2022 01:1516.9 °C90 %15.6 °C6 km/hSSO10 km/h16.7 1012 hPa-
18/08/2022 01:0117.2 °C89 %15.6 °C5 km/hSSO6 km/h17.2 1012 hPa-
18/08/2022 01:0017.2 °C89 %15.6 °C3 km/hSSO10 km/h17.2 1013 hPa-
18/08/2022 00:4517.3 °C89 %15.6 °C5 km/hSSO6 km/h17.2 1012 hPa-
18/08/2022 00:4417.4 °C89 %15.6 °C6 km/hSSO10 km/h17.2 1012 hPa-
18/08/2022 00:2917.6 °C88 %15.6 °C5 km/hSSO10 km/h17.8 1012 hPa-
18/08/2022 00:1417.8 °C88 %15.6 °C8 km/hSSO10 km/h17.8 1012 hPa-
18/08/2022 00:0017.9 °C87 %15.6 °C5 km/hS10 km/h17.8 1012 hPa-


Minima :

Température : 14.7 °C
Humidité : 45 %
Point de rosée : 13.3 °C
Vent moyen : 2 km/h
Windchill : 15.0
Pression atm. : 1012 hPa
Maxima :

Température : 27.6 °C
Humidité : 94 %
Point de rosée : 17.2 °C
Vent moyen : 23 km/h
Windchill : 27.2
Pression atm. : 1015 hPa
Rafales max : 31 km/h
Cumul de pluie sur 24H : 0 mm

Etrechet est une commune du département Indre (36).
La station météorologique du réseau de l'association la plus proche de Etrechet est celle de Saint-Maur



Icône Facebook Association Météo Centre Icône Twitter Association Météo Centre Icône Chaîne Youtube Association Météo Centre Icône contact Association Météo Centre Icône Insta Association Météo Centre